sensor_id;sensor_type;location;lat;lon;timestamp;temperature;humidity
20862;DHT22;10591;52.532;13.348;2024-02-26T00:01:37;4.60;78.34
20862;DHT22;10591;52.532;13.348;2024-02-26T00:04:08;4.84;77.62
20862;DHT22;10591;52.532;13.348;2024-02-26T00:06:41;4.85;77.42
20862;DHT22;10591;52.532;13.348;2024-02-26T00:09:12;4.66;77.84
20862;DHT22;10591;52.532;13.348;2024-02-26T00:11:43;4.54;78.50
20862;DHT22;10591;52.532;13.348;2024-02-26T00:14:13;4.46;78.75
20862;DHT22;10591;52.532;13.348;2024-02-26T00:16:45;4.78;77.41
20862;DHT22;10591;52.532;13.348;2024-02-26T00:19:17;4.53;78.37
20862;DHT22;10591;52.532;13.348;2024-02-26T00:21:48;4.46;78.99
20862;DHT22;10591;52.532;13.348;2024-02-26T00:24:19;4.36;79.52
20862;DHT22;10591;52.532;13.348;2024-02-26T00:26:56;4.28;79.88
20862;DHT22;10591;52.532;13.348;2024-02-26T00:29:29;4.50;79.12
20862;DHT22;10591;52.532;13.348;2024-02-26T00:32:00;4.93;77.46
20862;DHT22;10591;52.532;13.348;2024-02-26T00:34:31;4.70;78.39
20862;DHT22;10591;52.532;13.348;2024-02-26T00:37:04;4.62;78.54
20862;DHT22;10591;52.532;13.348;2024-02-26T00:39:35;4.44;79.37
20862;DHT22;10591;52.532;13.348;2024-02-26T00:42:06;4.31;79.86
20862;DHT22;10591;52.532;13.348;2024-02-26T00:44:39;4.75;78.69
20862;DHT22;10591;52.532;13.348;2024-02-26T00:47:10;4.79;78.24
20862;DHT22;10591;52.532;13.348;2024-02-26T00:49:41;4.86;78.04
20862;DHT22;10591;52.532;13.348;2024-02-26T00:52:12;4.74;78.13
20862;DHT22;10591;52.532;13.348;2024-02-26T00:54:42;4.64;78.47
20862;DHT22;10591;52.532;13.348;2024-02-26T00:57:14;4.66;78.38
20862;DHT22;10591;52.532;13.348;2024-02-26T00:59:45;4.42;79.22
20862;DHT22;10591;52.532;13.348;2024-02-26T01:02:16;4.52;79.46
20862;DHT22;10591;52.532;13.348;2024-02-26T01:04:47;4.67;78.84
20862;DHT22;10591;52.532;13.348;2024-02-26T01:07:19;4.65;78.50
20862;DHT22;10591;52.532;13.348;2024-02-26T01:09:50;4.43;79.61
20862;DHT22;10591;52.532;13.348;2024-02-26T01:12:21;4.30;80.05
20862;DHT22;10591;52.532;13.348;2024-02-26T01:14:52;4.20;80.41
20862;DHT22;10591;52.532;13.348;2024-02-26T01:17:22;4.07;81.13
20862;DHT22;10591;52.532;13.348;2024-02-26T01:19:53;4.04;81.22
20862;DHT22;10591;52.532;13.348;2024-02-26T01:22:24;3.98;81.49
20862;DHT22;10591;52.532;13.348;2024-02-26T01:24:54;4.20;80.93
20862;DHT22;10591;52.532;13.348;2024-02-26T01:27:26;4.49;80.21
20862;DHT22;10591;52.532;13.348;2024-02-26T01:29:57;4.52;79.83
20862;DHT22;10591;52.532;13.348;2024-02-26T01:32:27;4.50;79.71
20862;DHT22;10591;52.532;13.348;2024-02-26T01:34:58;4.29;80.80
20862;DHT22;10591;52.532;13.348;2024-02-26T01:37:30;4.49;80.05
20862;DHT22;10591;52.532;13.348;2024-02-26T01:40:00;4.68;80.01
20862;DHT22;10591;52.532;13.348;2024-02-26T01:42:33;4.47;80.77
20862;DHT22;10591;52.532;13.348;2024-02-26T01:45:04;4.48;81.13
20862;DHT22;10591;52.532;13.348;2024-02-26T01:47:36;4.63;80.74
20862;DHT22;10591;52.532;13.348;2024-02-26T01:50:09;4.26;81.88
20862;DHT22;10591;52.532;13.348;2024-02-26T01:52:41;4.17;82.65
20862;DHT22;10591;52.532;13.348;2024-02-26T01:55:14;4.14;82.82
20862;DHT22;10591;52.532;13.348;2024-02-26T01:57:47;4.04;83.40
20862;DHT22;10591;52.532;13.348;2024-02-26T02:00:18;4.27;82.42
20862;DHT22;10591;52.532;13.348;2024-02-26T02:02:52;4.38;82.16
20862;DHT22;10591;52.532;13.348;2024-02-26T02:05:25;4.45;81.55
20862;DHT22;10591;52.532;13.348;2024-02-26T02:07:57;4.69;81.04
20862;DHT22;10591;52.532;13.348;2024-02-26T02:10:28;4.53;81.43
20862;DHT22;10591;52.532;13.348;2024-02-26T02:12:58;4.44;81.43
20862;DHT22;10591;52.532;13.348;2024-02-26T02:15:29;4.43;81.45
20862;DHT22;10591;52.532;13.348;2024-02-26T02:18:00;4.30;81.89
20862;DHT22;10591;52.532;13.348;2024-02-26T02:20:35;4.26;82.44
20862;DHT22;10591;52.532;13.348;2024-02-26T02:23:07;4.14;82.55
20862;DHT22;10591;52.532;13.348;2024-02-26T02:25:38;3.96;83.29
20862;DHT22;10591;52.532;13.348;2024-02-26T02:28:10;3.88;83.55
20862;DHT22;10591;52.532;13.348;2024-02-26T02:30:42;3.86;83.82
20862;DHT22;10591;52.532;13.348;2024-02-26T02:33:13;3.80;83.94
20862;DHT22;10591;52.532;13.348;2024-02-26T02:35:45;4.04;83.24
20862;DHT22;10591;52.532;13.348;2024-02-26T02:38:17;4.15;82.37
20862;DHT22;10591;52.532;13.348;2024-02-26T02:40:48;4.05;82.57
20862;DHT22;10591;52.532;13.348;2024-02-26T02:43:19;3.98;82.88
20862;DHT22;10591;52.532;13.348;2024-02-26T02:45:51;4.09;82.60
20862;DHT22;10591;52.532;13.348;2024-02-26T02:48:23;4.06;82.48
20862;DHT22;10591;52.532;13.348;2024-02-26T02:50:54;4.12;82.29
20862;DHT22;10591;52.532;13.348;2024-02-26T02:53:25;4.03;82.36
20862;DHT22;10591;52.532;13.348;2024-02-26T02:55:55;4.15;82.06
20862;DHT22;10591;52.532;13.348;2024-02-26T02:58:27;4.00;82.37
20862;DHT22;10591;52.532;13.348;2024-02-26T03:00:58;3.86;82.76
20862;DHT22;10591;52.532;13.348;2024-02-26T03:03:32;3.94;82.87
20862;DHT22;10591;52.532;13.348;2024-02-26T03:06:03;3.78;83.52
20862;DHT22;10591;52.532;13.348;2024-02-26T03:08:35;3.90;82.95
20862;DHT22;10591;52.532;13.348;2024-02-26T03:11:12;3.96;83.19
20862;DHT22;10591;52.532;13.348;2024-02-26T03:13:40;4.14;82.96
20862;DHT22;10591;52.532;13.348;2024-02-26T03:16:14;4.00;83.14
20862;DHT22;10591;52.532;13.348;2024-02-26T03:18:45;3.92;83.28
20862;DHT22;10591;52.532;13.348;2024-02-26T03:21:15;3.93;83.17
20862;DHT22;10591;52.532;13.348;2024-02-26T03:23:46;4.07;83.32
20862;DHT22;10591;52.532;13.348;2024-02-26T03:26:17;4.02;83.79
20862;DHT22;10591;52.532;13.348;2024-02-26T03:28:47;4.03;83.44
20862;DHT22;10591;52.532;13.348;2024-02-26T03:31:20;4.00;83.53
20862;DHT22;10591;52.532;13.348;2024-02-26T03:33:51;4.03;83.45
20862;DHT22;10591;52.532;13.348;2024-02-26T03:36:24;3.97;83.84
20862;DHT22;10591;52.532;13.348;2024-02-26T03:38:54;3.94;83.77
20862;DHT22;10591;52.532;13.348;2024-02-26T03:41:26;3.80;83.98
20862;DHT22;10591;52.532;13.348;2024-02-26T03:43:56;3.80;84.32
20862;DHT22;10591;52.532;13.348;2024-02-26T03:46:28;3.82;84.37
20862;DHT22;10591;52.532;13.348;2024-02-26T03:48:59;3.86;83.75
20862;DHT22;10591;52.532;13.348;2024-02-26T03:51:30;3.90;84.01
20862;DHT22;10591;52.532;13.348;2024-02-26T03:54:01;3.74;84.42
20862;DHT22;10591;52.532;13.348;2024-02-26T03:56:32;3.72;84.47
20862;DHT22;10591;52.532;13.348;2024-02-26T03:59:03;3.88;84.37
20862;DHT22;10591;52.532;13.348;2024-02-26T04:01:33;3.66;84.67
20862;DHT22;10591;52.532;13.348;2024-02-26T04:04:04;3.62;85.05
20862;DHT22;10591;52.532;13.348;2024-02-26T04:06:35;3.64;84.99
20862;DHT22;10591;52.532;13.348;2024-02-26T04:09:05;3.88;84.08
20862;DHT22;10591;52.532;13.348;2024-02-26T04:11:37;3.82;84.71
20862;DHT22;10591;52.532;13.348;2024-02-26T04:14:07;3.75;84.70
20862;DHT22;10591;52.532;13.348;2024-02-26T04:16:38;3.67;85.11
20862;DHT22;10591;52.532;13.348;2024-02-26T04:19:09;3.85;84.99
20862;DHT22;10591;52.532;13.348;2024-02-26T04:21:41;3.74;85.03
20862;DHT22;10591;52.532;13.348;2024-02-26T04:24:13;3.72;84.64
20862;DHT22;10591;52.532;13.348;2024-02-26T04:26:45;3.86;84.93
20862;DHT22;10591;52.532;13.348;2024-02-26T04:29:16;3.78;84.95
20862;DHT22;10591;52.532;13.348;2024-02-26T04:31:48;3.68;85.04
20862;DHT22;10591;52.532;13.348;2024-02-26T04:34:18;3.82;84.89
20862;DHT22;10591;52.532;13.348;2024-02-26T04:36:49;3.70;85.20
20862;DHT22;10591;52.532;13.348;2024-02-26T04:39:22;3.56;85.46
20862;DHT22;10591;52.532;13.348;2024-02-26T04:41:53;3.42;85.94
20862;DHT22;10591;52.532;13.348;2024-02-26T04:44:25;3.38;86.01
20862;DHT22;10591;52.532;13.348;2024-02-26T04:46:56;3.28;86.37
20862;DHT22;10591;52.532;13.348;2024-02-26T04:49:27;3.40;86.44
20862;DHT22;10591;52.532;13.348;2024-02-26T04:51:59;3.54;85.70
20862;DHT22;10591;52.532;13.348;2024-02-26T04:54:30;3.72;84.78
20862;DHT22;10591;52.532;13.348;2024-02-26T04:57:00;3.64;84.94
20862;DHT22;10591;52.532;13.348;2024-02-26T04:59:31;3.73;84.56
20862;DHT22;10591;52.532;13.348;2024-02-26T05:02:03;3.70;84.86
20862;DHT22;10591;52.532;13.348;2024-02-26T05:04:35;3.71;84.73
20862;DHT22;10591;52.532;13.348;2024-02-26T05:07:08;3.55;85.21
20862;DHT22;10591;52.532;13.348;2024-02-26T05:09:39;3.62;85.16
20862;DHT22;10591;52.532;13.348;2024-02-26T05:12:12;3.49;85.35
20862;DHT22;10591;52.532;13.348;2024-02-26T05:14:46;3.46;85.73
20862;DHT22;10591;52.532;13.348;2024-02-26T05:17:16;3.50;85.62
20862;DHT22;10591;52.532;13.348;2024-02-26T05:19:47;3.65;84.76
20862;DHT22;10591;52.532;13.348;2024-02-26T05:22:18;3.54;85.25
20862;DHT22;10591;52.532;13.348;2024-02-26T05:24:49;3.62;84.80
20862;DHT22;10591;52.532;13.348;2024-02-26T05:27:21;3.60;85.04
20862;DHT22;10591;52.532;13.348;2024-02-26T05:29:51;3.52;84.94
20862;DHT22;10591;52.532;13.348;2024-02-26T05:32:24;3.72;84.47
20862;DHT22;10591;52.532;13.348;2024-02-26T05:34:55;3.76;84.65
20862;DHT22;10591;52.532;13.348;2024-02-26T05:37:25;3.56;85.22
20862;DHT22;10591;52.532;13.348;2024-02-26T05:39:57;3.48;85.22
20862;DHT22;10591;52.532;13.348;2024-02-26T05:42:28;3.55;85.05
20862;DHT22;10591;52.532;13.348;2024-02-26T05:44:58;3.44;85.68
20862;DHT22;10591;52.532;13.348;2024-02-26T05:47:32;3.53;85.59
20862;DHT22;10591;52.532;13.348;2024-02-26T05:50:04;3.41;85.64
20862;DHT22;10591;52.532;13.348;2024-02-26T05:52:36;3.46;85.97
20862;DHT22;10591;52.532;13.348;2024-02-26T05:55:10;3.34;85.81
20862;DHT22;10591;52.532;13.348;2024-02-26T05:57:41;3.52;85.62
20862;DHT22;10591;52.532;13.348;2024-02-26T06:00:12;3.49;85.78
20862;DHT22;10591;52.532;13.348;2024-02-26T06:02:44;3.42;85.94
20862;DHT22;10591;52.532;13.348;2024-02-26T06:05:16;3.54;86.03
20862;DHT22;10591;52.532;13.348;2024-02-26T06:07:48;3.44;86.19
20862;DHT22;10591;52.532;13.348;2024-02-26T06:10:19;3.40;86.20
20862;DHT22;10591;52.532;13.348;2024-02-26T06:12:51;3.32;86.03
20862;DHT22;10591;52.532;13.348;2024-02-26T06:15:21;3.38;85.91
20862;DHT22;10591;52.532;13.348;2024-02-26T06:17:54;3.54;85.92
20862;DHT22;10591;52.532;13.348;2024-02-26T06:20:25;3.46;85.83
20862;DHT22;10591;52.532;13.348;2024-02-26T06:22:55;3.50;85.67
20862;DHT22;10591;52.532;13.348;2024-02-26T06:25:26;3.58;85.42
20862;DHT22;10591;52.532;13.348;2024-02-26T06:27:57;3.81;84.52
20862;DHT22;10591;52.532;13.348;2024-02-26T06:30:27;3.64;85.08
20862;DHT22;10591;52.532;13.348;2024-02-26T06:32:58;3.63;85.16
20862;DHT22;10591;52.532;13.348;2024-02-26T06:35:30;3.50;85.63
20862;DHT22;10591;52.532;13.348;2024-02-26T06:38:00;3.60;85.38
20862;DHT22;10591;52.532;13.348;2024-02-26T06:40:36;3.63;85.03
20862;DHT22;10591;52.532;13.348;2024-02-26T06:43:10;3.66;85.24
20862;DHT22;10591;52.532;13.348;2024-02-26T06:45:41;3.73;85.12
20862;DHT22;10591;52.532;13.348;2024-02-26T06:48:12;3.98;84.39
20862;DHT22;10591;52.532;13.348;2024-02-26T06:50:43;4.01;84.10
20862;DHT22;10591;52.532;13.348;2024-02-26T06:53:14;4.32;83.90
20862;DHT22;10591;52.532;13.348;2024-02-26T06:55:48;4.46;82.94
20862;DHT22;10591;52.532;13.348;2024-02-26T06:58:25;4.12;83.38
20862;DHT22;10591;52.532;13.348;2024-02-26T07:00:53;4.28;83.30
20862;DHT22;10591;52.532;13.348;2024-02-26T07:03:24;4.24;83.72
20862;DHT22;10591;52.532;13.348;2024-02-26T07:05:57;4.10;83.97
20862;DHT22;10591;52.532;13.348;2024-02-26T07:08:28;4.13;83.56
20862;DHT22;10591;52.532;13.348;2024-02-26T07:10:58;4.41;83.31
20862;DHT22;10591;52.532;13.348;2024-02-26T07:13:29;4.40;83.39
20862;DHT22;10591;52.532;13.348;2024-02-26T07:16:04;4.46;82.97
20862;DHT22;10591;52.532;13.348;2024-02-26T07:18:35;4.33;83.47
20862;DHT22;10591;52.532;13.348;2024-02-26T07:21:19;4.50;83.07
20862;DHT22;10591;52.532;13.348;2024-02-26T07:23:51;4.59;82.56
20862;DHT22;10591;52.532;13.348;2024-02-26T07:26:22;4.62;82.76
20862;DHT22;10591;52.532;13.348;2024-02-26T07:28:54;4.54;83.01
20862;DHT22;10591;52.532;13.348;2024-02-26T07:31:25;4.68;82.75
20862;DHT22;10591;52.532;13.348;2024-02-26T07:33:58;4.72;82.08
20862;DHT22;10591;52.532;13.348;2024-02-26T07:36:29;4.78;82.51
20862;DHT22;10591;52.532;13.348;2024-02-26T07:39:01;4.87;82.23
20862;DHT22;10591;52.532;13.348;2024-02-26T07:41:33;4.93;81.99
20862;DHT22;10591;52.532;13.348;2024-02-26T07:44:04;4.92;82.03
20862;DHT22;10591;52.532;13.348;2024-02-26T07:46:35;4.88;82.13
20862;DHT22;10591;52.532;13.348;2024-02-26T07:49:07;5.16;81.76
20862;DHT22;10591;52.532;13.348;2024-02-26T07:51:38;5.24;81.26
20862;DHT22;10591;52.532;13.348;2024-02-26T07:54:08;5.41;80.94
20862;DHT22;10591;52.532;13.348;2024-02-26T07:56:39;5.38;80.77
20862;DHT22;10591;52.532;13.348;2024-02-26T07:59:11;5.64;80.16
20862;DHT22;10591;52.532;13.348;2024-02-26T08:01:42;5.49;80.20
20862;DHT22;10591;52.532;13.348;2024-02-26T08:04:14;5.52;80.71
20862;DHT22;10591;52.532;13.348;2024-02-26T08:06:46;5.74;79.75
20862;DHT22;10591;52.532;13.348;2024-02-26T08:09:16;5.72;80.01
20862;DHT22;10591;52.532;13.348;2024-02-26T08:11:47;5.68;79.26
20862;DHT22;10591;52.532;13.348;2024-02-26T08:14:18;5.69;79.33
20862;DHT22;10591;52.532;13.348;2024-02-26T08:16:48;5.62;79.89
20862;DHT22;10591;52.532;13.348;2024-02-26T08:19:19;5.83;79.10
20862;DHT22;10591;52.532;13.348;2024-02-26T08:21:49;5.66;79.13
20862;DHT22;10591;52.532;13.348;2024-02-26T08:24:20;5.74;79.37
20862;DHT22;10591;52.532;13.348;2024-02-26T08:26:53;5.77;79.09
20862;DHT22;10591;52.532;13.348;2024-02-26T08:29:23;5.90;79.11
20862;DHT22;10591;52.532;13.348;2024-02-26T08:31:54;6.34;77.85
20862;DHT22;10591;52.532;13.348;2024-02-26T08:34:25;6.71;77.43
20862;DHT22;10591;52.532;13.348;2024-02-26T08:36:56;6.58;76.54
20862;DHT22;10591;52.532;13.348;2024-02-26T08:39:28;6.56;76.36
20862;DHT22;10591;52.532;13.348;2024-02-26T08:42:00;6.52;76.85
20862;DHT22;10591;52.532;13.348;2024-02-26T08:44:31;6.62;76.41
20862;DHT22;10591;52.532;13.348;2024-02-26T08:47:03;6.74;76.13
20862;DHT22;10591;52.532;13.348;2024-02-26T08:49:34;7.22;74.92
20862;DHT22;10591;52.532;13.348;2024-02-26T08:52:06;7.29;74.75
20862;DHT22;10591;52.532;13.348;2024-02-26T08:54:36;7.73;73.66
20862;DHT22;10591;52.532;13.348;2024-02-26T08:57:08;7.42;74.71
20862;DHT22;10591;52.532;13.348;2024-02-26T08:59:40;7.22;74.94
20862;DHT22;10591;52.532;13.348;2024-02-26T09:02:11;7.24;74.77
20862;DHT22;10591;52.532;13.348;2024-02-26T09:04:41;7.60;73.87
20862;DHT22;10591;52.532;13.348;2024-02-26T09:07:12;7.66;73.47
20862;DHT22;10591;52.532;13.348;2024-02-26T09:09:43;7.55;73.45
20862;DHT22;10591;52.532;13.348;2024-02-26T09:12:15;7.50;73.60
20862;DHT22;10591;52.532;13.348;2024-02-26T09:14:45;7.88;72.64
20862;DHT22;10591;52.532;13.348;2024-02-26T09:17:16;7.92;72.10
20862;DHT22;10591;52.532;13.348;2024-02-26T09:19:47;8.23;71.88
20862;DHT22;10591;52.532;13.348;2024-02-26T09:22:17;7.91;71.87
20862;DHT22;10591;52.532;13.348;2024-02-26T09:24:48;7.84;72.04
20862;DHT22;10591;52.532;13.348;2024-02-26T09:27:21;7.83;72.40
20862;DHT22;10591;52.532;13.348;2024-02-26T09:29:53;8.01;71.62
20862;DHT22;10591;52.532;13.348;2024-02-26T09:32:24;8.06;71.64
20862;DHT22;10591;52.532;13.348;2024-02-26T09:34:56;8.05;71.34
20862;DHT22;10591;52.532;13.348;2024-02-26T09:37:27;7.95;71.95
20862;DHT22;10591;52.532;13.348;2024-02-26T09:39:58;7.84;71.97
20862;DHT22;10591;52.532;13.348;2024-02-26T09:42:31;7.93;72.24
20862;DHT22;10591;52.532;13.348;2024-02-26T09:45:06;7.74;72.59
20862;DHT22;10591;52.532;13.348;2024-02-26T09:47:42;8.02;71.89
20862;DHT22;10591;52.532;13.348;2024-02-26T09:50:16;8.04;71.71
20862;DHT22;10591;52.532;13.348;2024-02-26T09:52:48;8.34;70.85
20862;DHT22;10591;52.532;13.348;2024-02-26T09:55:19;8.30;70.94
20862;DHT22;10591;52.532;13.348;2024-02-26T09:57:52;8.57;70.36
20862;DHT22;10591;52.532;13.348;2024-02-26T10:00:26;8.65;70.12
20862;DHT22;10591;52.532;13.348;2024-02-26T10:03:05;8.66;70.11
20862;DHT22;10591;52.532;13.348;2024-02-26T10:05:37;8.88;69.15
20862;DHT22;10591;52.532;13.348;2024-02-26T10:08:11;8.94;68.91
20862;DHT22;10591;52.532;13.348;2024-02-26T10:10:44;8.84;68.95
20862;DHT22;10591;52.532;13.348;2024-02-26T10:13:15;8.76;69.21
20862;DHT22;10591;52.532;13.348;2024-02-26T10:15:46;9.02;68.83
20862;DHT22;10591;52.532;13.348;2024-02-26T10:18:18;9.14;68.56
20862;DHT22;10591;52.532;13.348;2024-02-26T10:21:02;9.12;68.01
20862;DHT22;10591;52.532;13.348;2024-02-26T10:23:33;9.43;67.27
20862;DHT22;10591;52.532;13.348;2024-02-26T10:26:03;9.20;67.89
20862;DHT22;10591;52.532;13.348;2024-02-26T10:28:36;9.50;67.21
20862;DHT22;10591;52.532;13.348;2024-02-26T10:31:07;9.64;66.88
20862;DHT22;10591;52.532;13.348;2024-02-26T10:33:39;9.72;66.81
20862;DHT22;10591;52.532;13.348;2024-02-26T10:36:13;9.66;66.69
20862;DHT22;10591;52.532;13.348;2024-02-26T10:38:45;10.11;65.56
20862;DHT22;10591;52.532;13.348;2024-02-26T10:41:15;10.24;65.25
20862;DHT22;10591;52.532;13.348;2024-02-26T10:43:47;10.00;64.57
20862;DHT22;10591;52.532;13.348;2024-02-26T10:46:19;10.20;64.77
20862;DHT22;10591;52.532;13.348;2024-02-26T10:48:52;9.94;64.73
20862;DHT22;10591;52.532;13.348;2024-02-26T10:51:29;10.10;64.81
20862;DHT22;10591;52.532;13.348;2024-02-26T10:54:03;10.32;64.12
20862;DHT22;10591;52.532;13.348;2024-02-26T10:56:37;10.29;63.92
20862;DHT22;10591;52.532;13.348;2024-02-26T10:59:10;10.13;64.46
20862;DHT22;10591;52.532;13.348;2024-02-26T11:01:41;9.93;64.78
20862;DHT22;10591;52.532;13.348;2024-02-26T11:04:15;10.15;64.12
20862;DHT22;10591;52.532;13.348;2024-02-26T11:06:47;9.84;64.63
20862;DHT22;10591;52.532;13.348;2024-02-26T11:09:22;9.95;64.31
20862;DHT22;10591;52.532;13.348;2024-02-26T11:11:54;10.08;64.11
20862;DHT22;10591;52.532;13.348;2024-02-26T11:14:29;10.20;63.91
20862;DHT22;10591;52.532;13.348;2024-02-26T11:17:00;10.50;63.48
20862;DHT22;10591;52.532;13.348;2024-02-26T11:19:34;10.63;63.42
20862;DHT22;10591;52.532;13.348;2024-02-26T11:22:07;10.70;63.49
20862;DHT22;10591;52.532;13.348;2024-02-26T11:24:40;10.70;63.29
20862;DHT22;10591;52.532;13.348;2024-02-26T11:27:12;10.86;62.64
20862;DHT22;10591;52.532;13.348;2024-02-26T11:29:51;10.78;62.37
20862;DHT22;10591;52.532;13.348;2024-02-26T11:32:23;10.62;62.60
20862;DHT22;10591;52.532;13.348;2024-02-26T11:34:54;10.68;62.78
20862;DHT22;10591;52.532;13.348;2024-02-26T11:37:25;10.64;62.18
20862;DHT22;10591;52.532;13.348;2024-02-26T11:40:01;10.65;63.12
20862;DHT22;10591;52.532;13.348;2024-02-26T11:42:32;10.77;62.88
20862;DHT22;10591;52.532;13.348;2024-02-26T11:45:03;10.85;63.34
20862;DHT22;10591;52.532;13.348;2024-02-26T11:47:35;10.89;63.91
20862;DHT22;10591;52.532;13.348;2024-02-26T11:53:23;11.08;63.30
20862;DHT22;10591;52.532;13.348;2024-02-26T11:58:45;11.04;62.90
20862;DHT22;10591;52.532;13.348;2024-02-26T12:01:38;11.16;62.49
20862;DHT22;10591;52.532;13.348;2024-02-26T12:06:58;11.17;61.78
20862;DHT22;10591;52.532;13.348;2024-02-26T12:09:42;10.85;62.50
20862;DHT22;10591;52.532;13.348;2024-02-26T12:12:17;11.05;61.82
20862;DHT22;10591;52.532;13.348;2024-02-26T12:14:53;10.76;62.23
20862;DHT22;10591;52.532;13.348;2024-02-26T12:17:26;10.90;61.96
20862;DHT22;10591;52.532;13.348;2024-02-26T12:20:11;10.90;62.28
20862;DHT22;10591;52.532;13.348;2024-02-26T12:22:49;11.00;61.75
20862;DHT22;10591;52.532;13.348;2024-02-26T12:25:20;11.32;61.55
20862;DHT22;10591;52.532;13.348;2024-02-26T12:27:52;11.44;60.94
20862;DHT22;10591;52.532;13.348;2024-02-26T12:30:23;11.54;59.83
20862;DHT22;10591;52.532;13.348;2024-02-26T12:32:56;11.51;60.00
20862;DHT22;10591;52.532;13.348;2024-02-26T12:35:28;11.74;59.28
20862;DHT22;10591;52.532;13.348;2024-02-26T12:38:01;11.48;59.59
20862;DHT22;10591;52.532;13.348;2024-02-26T12:40:33;11.37;60.01
20862;DHT22;10591;52.532;13.348;2024-02-26T12:43:05;11.66;59.27
20862;DHT22;10591;52.532;13.348;2024-02-26T12:45:39;11.40;59.17
20862;DHT22;10591;52.532;13.348;2024-02-26T12:48:10;11.50;58.95
20862;DHT22;10591;52.532;13.348;2024-02-26T12:50:46;11.67;58.42
20862;DHT22;10591;52.532;13.348;2024-02-26T12:53:19;11.52;58.73
20862;DHT22;10591;52.532;13.348;2024-02-26T12:55:50;11.69;58.37
20862;DHT22;10591;52.532;13.348;2024-02-26T12:58:22;11.62;58.04
20862;DHT22;10591;52.532;13.348;2024-02-26T13:00:57;11.56;57.64
20862;DHT22;10591;52.532;13.348;2024-02-26T13:03:28;11.54;57.35
20862;DHT22;10591;52.532;13.348;2024-02-26T13:05:59;11.20;57.71
20862;DHT22;10591;52.532;13.348;2024-02-26T13:08:32;11.28;57.90
20862;DHT22;10591;52.532;13.348;2024-02-26T13:11:03;11.56;57.41
20862;DHT22;10591;52.532;13.348;2024-02-26T13:13:34;11.62;57.42
20862;DHT22;10591;52.532;13.348;2024-02-26T13:16:07;11.76;56.38
20862;DHT22;10591;52.532;13.348;2024-02-26T13:18:38;11.72;55.74
20862;DHT22;10591;52.532;13.348;2024-02-26T13:21:15;11.49;56.13
20862;DHT22;10591;52.532;13.348;2024-02-26T13:23:51;11.83;55.89
20862;DHT22;10591;52.532;13.348;2024-02-26T13:26:23;12.04;54.90
20862;DHT22;10591;52.532;13.348;2024-02-26T13:29:02;11.88;55.45
20862;DHT22;10591;52.532;13.348;2024-02-26T13:31:40;11.64;55.35
20862;DHT22;10591;52.532;13.348;2024-02-26T13:34:26;11.64;54.36
20862;DHT22;10591;52.532;13.348;2024-02-26T13:36:57;11.53;53.74
20862;DHT22;10591;52.532;13.348;2024-02-26T13:39:28;11.55;53.44
20862;DHT22;10591;52.532;13.348;2024-02-26T13:42:01;11.75;53.18
20862;DHT22;10591;52.532;13.348;2024-02-26T13:44:33;11.56;53.09
20862;DHT22;10591;52.532;13.348;2024-02-26T13:47:05;11.62;52.64
20862;DHT22;10591;52.532;13.348;2024-02-26T13:49:36;11.64;53.12
20862;DHT22;10591;52.532;13.348;2024-02-26T13:52:06;11.54;52.69
20862;DHT22;10591;52.532;13.348;2024-02-26T13:54:37;11.47;52.71
20862;DHT22;10591;52.532;13.348;2024-02-26T13:57:10;11.36;53.39
20862;DHT22;10591;52.532;13.348;2024-02-26T13:59:40;11.32;53.63
20862;DHT22;10591;52.532;13.348;2024-02-26T14:02:12;11.38;53.63
20862;DHT22;10591;52.532;13.348;2024-02-26T14:04:43;11.68;52.89
20862;DHT22;10591;52.532;13.348;2024-02-26T14:07:15;11.32;53.29
20862;DHT22;10591;52.532;13.348;2024-02-26T14:09:50;11.32;53.69
20862;DHT22;10591;52.532;13.348;2024-02-26T14:12:22;11.30;53.29
20862;DHT22;10591;52.532;13.348;2024-02-26T14:14:54;11.21;53.49
20862;DHT22;10591;52.532;13.348;2024-02-26T14:17:25;11.30;53.38
20862;DHT22;10591;52.532;13.348;2024-02-26T14:19:56;11.29;53.62
20862;DHT22;10591;52.532;13.348;2024-02-26T14:22:27;11.10;53.90
20862;DHT22;10591;52.532;13.348;2024-02-26T14:24:58;11.03;54.30
20862;DHT22;10591;52.532;13.348;2024-02-26T14:27:29;11.06;54.64
20862;DHT22;10591;52.532;13.348;2024-02-26T14:30:02;11.05;54.87
20862;DHT22;10591;52.532;13.348;2024-02-26T14:32:32;11.14;54.85
20862;DHT22;10591;52.532;13.348;2024-02-26T14:35:07;11.10;55.27
20862;DHT22;10591;52.532;13.348;2024-02-26T14:37:41;10.89;56.16
20862;DHT22;10591;52.532;13.348;2024-02-26T14:40:16;10.89;56.54
20862;DHT22;10591;52.532;13.348;2024-02-26T14:42:47;10.78;56.82
20862;DHT22;10591;52.532;13.348;2024-02-26T14:45:19;10.78;56.85
20862;DHT22;10591;52.532;13.348;2024-02-26T14:47:49;10.71;57.16
20862;DHT22;10591;52.532;13.348;2024-02-26T14:50:22;10.72;57.55
20862;DHT22;10591;52.532;13.348;2024-02-26T14:52:53;10.83;57.53
20862;DHT22;10591;52.532;13.348;2024-02-26T14:55:25;10.96;57.88
20862;DHT22;10591;52.532;13.348;2024-02-26T14:57:57;10.76;58.05
20862;DHT22;10591;52.532;13.348;2024-02-26T15:00:31;10.66;58.36
20862;DHT22;10591;52.532;13.348;2024-02-26T15:03:04;10.64;58.55
20862;DHT22;10591;52.532;13.348;2024-02-26T15:05:38;10.74;58.74
20862;DHT22;10591;52.532;13.348;2024-02-26T15:08:08;10.49;59.35
20862;DHT22;10591;52.532;13.348;2024-02-26T15:10:40;10.64;59.48
20862;DHT22;10591;52.532;13.348;2024-02-26T15:13:12;10.52;59.87
20862;DHT22;10591;52.532;13.348;2024-02-26T15:15:44;10.46;60.41
20862;DHT22;10591;52.532;13.348;2024-02-26T15:18:15;10.62;60.52
20862;DHT22;10591;52.532;13.348;2024-02-26T15:20:47;10.62;61.21
20862;DHT22;10591;52.532;13.348;2024-02-26T15:23:17;10.66;60.95
20862;DHT22;10591;52.532;13.348;2024-02-26T15:25:48;10.82;60.58
20862;DHT22;10591;52.532;13.348;2024-02-26T15:28:20;10.56;61.02
20862;DHT22;10591;52.532;13.348;2024-02-26T15:30:53;10.47;61.53
20862;DHT22;10591;52.532;13.348;2024-02-26T15:33:24;10.38;61.99
20862;DHT22;10591;52.532;13.348;2024-02-26T15:35:57;10.45;61.95
20862;DHT22;10591;52.532;13.348;2024-02-26T15:38:29;10.43;62.14
20862;DHT22;10591;52.532;13.348;2024-02-26T15:41:01;10.53;62.22
20862;DHT22;10591;52.532;13.348;2024-02-26T15:43:33;10.41;62.48
20862;DHT22;10591;52.532;13.348;2024-02-26T15:46:04;10.52;62.36
20862;DHT22;10591;52.532;13.348;2024-02-26T15:48:42;10.37;63.09
20862;DHT22;10591;52.532;13.348;2024-02-26T15:51:22;10.26;63.38
20862;DHT22;10591;52.532;13.348;2024-02-26T15:53:56;10.20;63.60
20862;DHT22;10591;52.532;13.348;2024-02-26T15:56:28;10.16;63.93
20862;DHT22;10591;52.532;13.348;2024-02-26T15:58:59;10.17;64.07
20862;DHT22;10591;52.532;13.348;2024-02-26T16:01:30;10.24;64.33
20862;DHT22;10591;52.532;13.348;2024-02-26T16:04:01;10.20;64.07